Main page
METAR-TAF:

METAR-TAF

Airports :

Topcliffe, England

RAF Topcliffe

latitude: 54-12N, longitude: 001-23W, elevation: 28 m

Current weather observation

The report was made 55 minutes ago, at 17:50 UTC
Wind 12 kt from the East/Southeast
Temperature 9°C
Humidity 76%
Pressure 1026 hPa
Visibility 10 km or more

METAR: EGXZ 261750Z AUTO 11012KT 9999 NCD 09/05 Q1026

Time: 19:45 (18:45 UTC)


TAF: missing

Weather observations and forecasts of more than 4000 airports (METAR and TAF reports).

The available stations are represented by yellow and red dots on the map.

Hover mouse over dot to see the name of the station.

Then click to see weather observations and forecasts.

To change the map : click on the green buttons with a black cross to zoom in, on the green button with a dash to zoom out, or on the green arrows for adjacent maps.


METAR-TAF: